Time;durP1;ratioP1;P1;durP2;ratioP2;P2;SDS_P1;SDS_P2;PMS_P1;PMS_P2;Temp;Humidity;BMP_temperature;BMP_pressure;BME280_temperature;BME280_humidity;BME280_pressure;Samples;Min_cycle;Max_cycle;Signal;HPM_P1;HPM_P2
2023/12/31 00:02:08;;;;;;;8.50;6.43;;;3.80;93.50;;;2.72;100.00;97615.59;5020637;28;20486;-68
2023/12/31 00:04:36;;;;;;;6.57;5.20;;;3.80;93.40;;;2.74;100.00;97618.91;5026831;28;20466;-68
2023/12/31 00:07:03;;;;;;;6.00;5.20;;;3.80;93.40;;;2.76;100.00;97610.72;5004555;28;20447;-68
2023/12/31 00:09:33;;;;;;;7.77;6.20;;;3.80;93.30;;;2.64;100.00;97607.59;5025492;28;20455;-68
2023/12/31 00:12:00;;;;;;;7.73;5.23;;;3.70;93.40;;;2.66;100.00;97610.97;5026047;28;20458;-68
2023/12/31 00:14:27;;;;;;;7.30;5.10;;;3.70;93.70;;;2.60;100.00;97606.31;5029324;28;20526;-68
2023/12/31 00:16:56;;;;;;;6.50;5.07;;;3.70;94.10;;;2.59;100.00;97594.81;5025244;28;20461;-68
2023/12/31 00:19:23;;;;;;;7.30;5.30;;;3.70;94.00;;;2.61;100.00;97605.28;5004880;28;20966;-68
2023/12/31 00:21:50;;;;;;;7.60;5.10;;;3.60;94.20;;;2.61;100.00;97592.81;5027295;28;21027;-68
2023/12/31 00:24:19;;;;;;;7.97;5.10;;;3.60;94.30;;;2.59;100.00;97588.63;5026029;28;20453;-68
2023/12/31 00:26:48;;;;;;;6.07;5.00;;;3.60;94.20;;;2.54;100.00;97594.50;5021613;28;20843;-68
2023/12/31 00:29:15;;;;;;;7.77;5.33;;;3.60;94.50;;;2.57;100.00;97594.13;5025059;28;20465;-68
2023/12/31 00:31:42;;;;;;;5.23;4.73;;;3.60;94.50;;;2.58;100.00;97595.81;5020413;28;20502;-68
2023/12/31 00:34:13;;;;;;;6.73;4.93;;;3.60;94.70;;;2.50;100.00;97601.19;5007106;28;20451;-68
2023/12/31 00:36:40;;;;;;;7.10;5.67;;;3.50;94.30;;;2.53;100.00;97593.69;4991082;28;20449;-68
2023/12/31 00:39:07;;;;;;;8.67;5.63;;;3.50;94.80;;;2.50;100.00;97578.03;5022025;28;20567;-68
2023/12/31 00:41:35;;;;;;;7.90;5.23;;;3.50;94.90;;;2.48;100.00;97571.19;5023945;28;20946;-69
2023/12/31 00:44:04;;;;;;;5.53;4.37;;;3.50;95.00;;;2.45;100.00;97572.38;5029500;28;20458;-68
2023/12/31 00:46:31;;;;;;;8.50;5.60;;;3.50;95.10;;;2.44;100.00;97569.91;5012456;28;20461;-68
2023/12/31 00:49:02;;;;;;;7.37;5.27;;;3.50;95.30;;;2.43;100.00;97553.06;5013423;28;20859;-68
2023/12/31 00:51:30;;;;;;;9.43;4.70;;;3.40;95.30;;;2.48;100.00;97561.34;5022070;28;21091;-69
2023/12/31 00:53:57;;;;;;;11.20;9.80;;;3.50;95.90;;;2.44;100.00;97554.72;5026701;28;20450;-68
2023/12/31 00:56:28;;;;;;;11.30;7.53;;;3.50;95.80;;;2.50;100.00;97550.50;5005814;28;20476;-68
2023/12/31 00:58:55;;;;;;;7.77;5.60;;;3.50;95.70;;;2.44;100.00;97544.03;5007526;28;20458;-68
2023/12/31 01:01:24;;;;;;;6.27;5.50;;;3.40;95.60;;;2.38;100.00;97547.41;5014902;28;20517;-69
2023/12/31 01:03:52;;;;;;;9.43;5.17;;;3.40;95.90;;;2.43;100.00;97550.38;5007495;28;20462;-68
2023/12/31 01:06:19;;;;;;;6.97;4.90;;;3.50;96.30;;;2.46;100.00;97547.34;5012087;28;20447;-68
2023/12/31 01:08:47;;;;;;;6.53;5.27;;;3.50;96.30;;;2.48;100.00;97550.69;5011226;28;20952;-68
2023/12/31 01:11:15;;;;;;;6.50;5.30;;;3.50;96.40;;;2.47;100.00;97540.19;5027011;28;20450;-68
2023/12/31 01:13:42;;;;;;;6.37;4.80;;;3.50;96.40;;;2.43;100.00;97537.06;5030096;28;20467;-68
2023/12/31 01:16:10;;;;;;;6.73;5.73;;;3.50;96.40;;;2.41;100.00;97534.53;4991080;28;20458;-68
2023/12/31 01:18:39;;;;;;;5.20;4.60;;;3.40;96.30;;;2.30;100.00;97526.13;4993331;28;20961;-65
2023/12/31 01:21:06;;;;;;;6.00;5.13;;;3.30;96.10;;;2.29;100.00;97532.47;5017634;28;20458;-68
2023/12/31 01:23:34;;;;;;;6.50;4.83;;;3.30;96.70;;;2.28;100.00;97522.81;5023948;28;20501;-68
2023/12/31 01:26:02;;;;;;;5.50;5.00;;;3.20;97.10;;;2.29;100.00;97519.97;5016403;28;20486;-67
2023/12/31 01:28:32;;;;;;;5.03;4.53;;;3.30;97.60;;;2.33;100.00;97515.94;5028720;28;20458;-68
2023/12/31 01:31:00;;;;;;;9.63;5.00;;;3.30;97.80;;;2.23;100.00;97497.50;5026455;28;20519;-68
2023/12/31 01:33:27;;;;;;;7.60;4.80;;;3.30;98.10;;;2.31;100.00;97511.78;5003821;28;20505;-68
2023/12/31 01:35:56;;;;;;;5.03;4.63;;;3.30;97.70;;;2.30;100.00;97510.97;5006402;28;20450;-68
2023/12/31 01:38:24;;;;;;;7.67;5.73;;;3.30;98.00;;;2.33;100.00;97510.63;5018320;28;20455;-68
2023/12/31 01:40:55;;;;;;;7.70;5.27;;;3.40;98.10;;;2.38;100.00;97504.75;4998187;28;20863;-69
2023/12/31 01:43:23;;;;;;;7.10;5.53;;;3.40;98.30;;;2.37;100.00;97495.09;5016056;28;20473;-68
2023/12/31 01:45:51;;;;;;;6.40;5.57;;;3.40;98.00;;;2.37;100.00;97495.09;5015497;28;20455;-69
2023/12/31 01:48:19;;;;;;;7.20;5.80;;;3.40;98.10;;;2.36;100.00;97494.25;4995771;28;21224;-69
2023/12/31 01:50:47;;;;;;;6.80;5.63;;;3.40;98.00;;;2.35;100.00;97489.94;5026534;28;20454;-68
2023/12/31 01:53:15;;;;;;;7.40;5.60;;;3.40;98.20;;;1.91;100.00;97416.72;5011706;28;20596;-68
2023/12/31 01:55:44;;;;;;;7.40;5.57;;;3.30;98.10;;;2.34;100.00;97487.44;5027842;28;20453;-67
2023/12/31 01:58:12;;;;;;;8.97;5.97;;;3.30;98.20;;;2.43;100.00;97482.88;5021680;28;20451;-68
2023/12/31 02:00:39;;;;;;;6.77;5.23;;;3.40;99.00;;;2.43;100.00;97482.88;5023384;28;20480;-68
2023/12/31 02:03:08;;;;;;;11.10;6.67;;;3.50;99.00;;;2.48;100.00;97476.00;5020555;28;20463;-68
2023/12/31 02:05:38;;;;;;;8.47;5.60;;;3.50;98.80;;;2.49;100.00;97471.50;5004896;28;20453;-68
2023/12/31 02:08:06;;;;;;;10.27;6.43;;;3.50;98.70;;;2.49;100.00;97456.31;5013474;28;21064;-68
2023/12/31 02:10:36;;;;;;;9.40;6.33;;;3.60;98.50;;;2.48;100.00;97462.66;5013767;28;20459;-68
2023/12/31 02:13:07;;;;;;;9.17;6.87;;;3.60;98.30;;;2.54;100.00;97456.66;5004797;28;20454;-69
2023/12/31 02:15:36;;;;;;;8.30;6.67;;;3.60;98.50;;;2.50;100.00;97452.69;5027135;28;20938;-69
2023/12/31 02:18:06;;;;;;;7.83;7.03;;;3.50;98.00;;;2.52;100.00;97448.00;5024861;28;20449;-67
2023/12/31 02:20:34;;;;;;;7.40;6.60;;;3.60;98.10;;;2.55;100.00;97442.31;4992399;28;20566;-67
2023/12/31 02:23:03;;;;;;;8.30;6.33;;;3.60;97.90;;;2.52;100.00;97448.00;5000300;28;20470;-69
2023/12/31 02:25:31;;;;;;;7.63;6.57;;;3.60;97.80;;;2.36;100.00;97419.59;5005162;28;20988;-68
2023/12/31 02:28:00;;;;;;;8.07;6.90;;;3.50;97.60;;;2.51;100.00;97441.00;5014086;28;20480;-68
2023/12/31 02:30:30;;;;;;;8.40;7.07;;;3.50;98.00;;;2.52;100.00;97437.34;5024707;28;20538;-68
2023/12/31 02:32:57;;;;;;;12.63;7.67;;;3.50;98.10;;;2.06;100.00;97357.34;5009679;28;20458;-68
2023/12/31 02:35:25;;;;;;;9.33;7.80;;;3.60;97.80;;;2.46;100.00;97429.22;4998908;28;21011;-68
2023/12/31 02:37:55;;;;;;;9.30;6.90;;;3.50;97.50;;;2.59;100.00;97429.44;5009329;28;20978;-68
2023/12/31 02:40:23;;;;;;;8.40;7.13;;;3.60;98.10;;;2.58;100.00;97421.63;5012740;28;20456;-68
2023/12/31 02:42:51;;;;;;;9.07;7.47;;;3.60;97.70;;;2.46;100.00;97430.03;5005197;28;20553;-68
2023/12/31 02:45:22;;;;;;;11.07;8.30;;;3.50;97.20;;;2.47;100.00;97428.19;5021148;28;20470;-68
2023/12/31 02:47:50;;;;;;;11.27;8.30;;;3.50;97.40;;;2.39;100.00;97408.56;5016812;28;20496;-68
2023/12/31 02:50:17;;;;;;;9.90;8.23;;;3.40;97.60;;;2.42;100.00;97402.06;5021233;28;20470;-68
2023/12/31 02:52:48;;;;;;;10.97;7.83;;;3.40;97.90;;;2.43;100.00;97397.53;5007860;28;20450;-68
2023/12/31 02:55:16;;;;;;;11.13;8.40;;;3.50;97.90;;;2.46;100.00;97395.34;5023712;28;20458;-69
2023/12/31 02:57:43;;;;;;;11.30;7.87;;;3.50;98.00;;;2.53;100.00;97396.31;5006880;28;20464;-67
2023/12/31 03:00:12;;;;;;;8.07;7.27;;;3.50;98.00;;;2.49;100.00;97387.00;5022860;28;20458;-68
2023/12/31 03:02:41;;;;;;;8.90;7.50;;;3.50;97.60;;;2.52;100.00;97386.66;5023819;28;20479;-68
2023/12/31 03:05:10;;;;;;;10.70;7.93;;;3.50;97.70;;;2.49;100.00;97378.19;5019998;28;20463;-70
2023/12/31 03:07:37;;;;;;;10.40;7.80;;;3.50;97.50;;;2.46;100.00;97381.22;4999565;28;20459;-68
2023/12/31 03:10:06;;;;;;;11.50;7.47;;;3.50;97.10;;;2.47;100.00;97385.53;5019165;28;20454;-69
2023/12/31 03:12:33;;;;;;;12.50;8.27;;;3.50;97.20;;;2.29;100.00;97354.69;5014545;28;20543;-68
2023/12/31 03:15:00;;;;;;;10.47;7.90;;;3.50;97.20;;;2.27;100.00;97367.34;5023469;28;20489;-68
2023/12/31 03:17:28;;;;;;;8.27;7.40;;;3.50;97.10;;;2.35;100.00;97369.09;5024080;28;20451;-67
2023/12/31 03:19:57;;;;;;;8.43;7.53;;;3.40;97.20;;;2.31;100.00;97375.81;5009751;28;20448;-68
2023/12/31 03:22:24;;;;;;;9.70;7.03;;;3.40;97.20;;;2.30;100.00;97371.50;5002599;28;20995;-67
2023/12/31 03:24:52;;;;;;;9.37;7.27;;;3.40;97.30;;;2.30;100.00;97364.34;5027116;28;20446;-68
2023/12/31 03:27:19;;;;;;;8.17;7.00;;;3.30;97.50;;;2.26;100.00;97353.19;5014788;28;20944;-68
2023/12/31 03:29:46;;;;;;;8.23;6.53;;;3.30;97.90;;;2.32;100.00;97369.47;5024673;28;20516;-68
2023/12/31 03:32:13;;;;;;;8.50;7.20;;;3.30;98.10;;;2.26;100.00;97358.53;5009503;28;20452;-67
2023/12/31 03:34:40;;;;;;;9.10;6.90;;;3.30;97.90;;;2.14;100.00;97335.94;5020819;28;20550;-67
2023/12/31 03:37:09;;;;;;;8.73;7.00;;;3.30;97.90;;;2.19;100.00;97341.56;5027206;28;20510;-67
2023/12/31 03:39:37;;;;;;;8.97;7.00;;;3.30;98.10;;;2.28;100.00;97346.84;5005031;28;20485;-68
2023/12/31 03:42:04;;;;;;;9.70;6.70;;;3.30;98.10;;;2.17;100.00;97340.91;5024674;28;20469;-68
2023/12/31 03:44:32;;;;;;;7.93;7.13;;;3.20;98.20;;;2.18;100.00;97331.09;5025710;28;20469;-67
2023/12/31 03:46:59;;;;;;;8.90;6.80;;;3.20;98.30;;;2.13;100.00;97323.63;5011346;28;21182;-68
2023/12/31 03:49:26;;;;;;;8.00;6.47;;;3.20;98.20;;;2.21;100.00;97320.91;5030621;28;20454;-67
2023/12/31 03:51:53;;;;;;;7.67;6.60;;;3.20;98.40;;;2.16;100.00;97323.28;5024340;28;20461;-69
2023/12/31 03:54:21;;;;;;;9.70;7.43;;;3.20;98.00;;;2.03;100.00;97331.03;5022684;28;20476;-68
2023/12/31 03:56:49;;;;;;;9.67;7.60;;;3.20;97.60;;;1.94;100.00;97308.94;5020640;28;20453;-68
2023/12/31 03:59:16;;;;;;;9.17;8.23;;;3.10;97.80;;;1.49;100.00;97227.03;5004056;28;20505;-69
2023/12/31 04:01:46;;;;;;;11.57;9.23;;;3.10;98.40;;;1.93;100.00;97292.16;5000969;28;20938;-67
2023/12/31 04:04:15;;;;;;;12.40;9.97;;;3.00;98.10;;;1.90;100.00;97287.19;5003718;28;21201;-68
2023/12/31 04:06:43;;;;;;;10.93;8.40;;;3.00;97.90;;;1.83;100.00;97278.22;4996746;28;20866;-67
2023/12/31 04:09:12;;;;;;;10.07;7.00;;;3.00;98.60;;;1.96;100.00;97281.13;5009781;28;20454;-69
2023/12/31 04:11:41;;;;;;;10.30;7.03;;;3.00;98.90;;;2.02;100.00;97282.25;5001526;28;20492;-68
2023/12/31 04:14:08;;;;;;;8.70;7.67;;;3.10;98.60;;;2.01;100.00;97282.41;5021131;28;20539;-68
2023/12/31 04:16:35;;;;;;;9.50;8.07;;;3.10;98.10;;;1.96;100.00;97289.13;5029476;28;20550;-68
2023/12/31 04:19:03;;;;;;;9.83;7.80;;;3.10;97.80;;;2.04;100.00;97284.72;5027681;28;20524;-68
2023/12/31 04:21:30;;;;;;;8.60;7.70;;;3.10;97.90;;;2.00;100.00;97291.44;4997182;28;20503;-69
2023/12/31 04:23:57;;;;;;;8.87;7.57;;;3.10;97.40;;;2.03;100.00;97289.25;5021106;28;20488;-68
2023/12/31 04:26:24;;;;;;;13.43;8.63;;;3.10;97.50;;;2.01;100.00;97282.41;5028417;28;20452;-69
2023/12/31 04:28:53;;;;;;;10.90;8.20;;;3.10;97.10;;;2.03;100.00;97280.41;5028837;28;20473;-68
2023/12/31 04:31:20;;;;;;;10.13;8.83;;;3.10;97.10;;;1.52;100.00;97200.06;5013282;28;21023;-68
2023/12/31 04:33:48;;;;;;;9.10;8.20;;;3.10;96.90;;;2.07;100.00;97271.06;5028076;28;20522;-68
2023/12/31 04:36:15;;;;;;;9.73;8.73;;;3.10;97.10;;;2.13;100.00;97251.69;5026537;28;20504;-68
2023/12/31 04:38:42;;;;;;;11.50;8.30;;;3.20;97.20;;;2.24;100.00;97256.59;5020960;28;20959;-69
2023/12/31 04:41:19;;;;;;;13.33;9.10;;;3.30;97.00;;;2.31;100.00;97255.84;5024399;28;20450;-69
2023/12/31 04:43:47;;;;;;;11.20;8.43;;;3.40;96.30;;;2.40;100.00;97257.44;5015468;28;20985;-68
2023/12/31 04:46:18;;;;;;;10.53;8.00;;;3.50;96.00;;;2.35;100.00;97238.47;5025644;28;20959;-68
2023/12/31 04:48:45;;;;;;;10.83;7.73;;;3.50;95.50;;;2.50;100.00;97244.66;5028397;28;20461;-68
2023/12/31 04:51:24;;;;;;;9.40;8.30;;;3.60;95.00;;;2.59;100.00;97252.56;5018689;28;20536;-67
2023/12/31 04:53:52;;;;;;;9.60;8.17;;;3.60;94.40;;;2.58;100.00;97237.59;4994963;28;20465;-68
2023/12/31 04:56:20;;;;;;;8.40;6.57;;;3.70;93.80;;;2.63;100.00;97235.19;5002800;28;20453;-68
2023/12/31 04:58:50;;;;;;;11.17;7.50;;;3.80;93.40;;;2.64;100.00;97229.69;5020484;28;20443;-68
2023/12/31 05:01:18;;;;;;;11.33;7.93;;;3.80;93.10;;;2.60;100.00;97222.22;5018116;28;20459;-68
2023/12/31 05:03:47;;;;;;;8.90;8.00;;;3.80;92.80;;;2.51;100.00;97214.31;5006753;28;20467;-68
2023/12/31 05:06:15;;;;;;;9.60;7.40;;;3.80;92.60;;;2.67;100.00;97233.81;5011482;28;20468;-68
2023/12/31 05:08:43;;;;;;;8.03;6.97;;;3.80;92.40;;;2.73;100.00;97232.22;5023453;28;20939;-68
2023/12/31 05:11:11;;;;;;;7.80;6.90;;;3.80;92.50;;;2.73;99.93;97232.22;5010631;28;20803;-68
2023/12/31 05:13:39;;;;;;;7.63;6.57;;;3.80;92.40;;;2.70;100.00;97220.13;5006441;28;20463;-68
2023/12/31 05:16:07;;;;;;;7.30;6.40;;;3.80;92.00;;;2.62;99.71;97214.84;5009117;28;20445;-68
2023/12/31 05:18:36;;;;;;;9.37;7.10;;;3.80;92.00;;;2.66;100.00;97216.16;5003784;28;20458;-68
2023/12/31 05:21:03;;;;;;;7.83;6.70;;;3.80;92.00;;;2.71;100.00;97215.59;5008333;28;20524;-68
2023/12/31 05:23:31;;;;;;;7.43;6.37;;;3.80;92.00;;;2.72;99.10;97222.56;5021980;28;20484;-69
2023/12/31 05:25:59;;;;;;;7.00;6.30;;;3.80;91.80;;;2.74;98.94;97213.38;5006218;28;20458;-69
2023/12/31 05:28:26;;;;;;;7.70;6.80;;;3.90;91.70;;;2.76;99.21;97210.53;4987966;28;20509;-68
2023/12/31 05:30:53;;;;;;;7.50;6.70;;;3.90;91.30;;;2.76;98.60;97210.53;5011449;28;20553;-68
2023/12/31 05:33:20;;;;;;;8.90;6.50;;;3.90;91.30;;;2.82;98.32;97193.78;5018258;28;20447;-68
2023/12/31 05:35:50;;;;;;;8.27;6.80;;;3.90;91.40;;;2.84;97.80;97186.41;5004633;28;20464;-68
2023/12/31 05:38:17;;;;;;;8.33;5.27;;;3.90;91.00;;;2.79;97.46;97172.81;5019240;28;20518;-68
2023/12/31 05:40:44;;;;;;;6.57;5.97;;;3.90;91.00;;;2.73;98.55;97168.22;5019797;28;20462;-68
2023/12/31 05:43:12;;;;;;;7.50;6.70;;;3.90;91.00;;;2.78;98.48;97169.31;5023740;28;20943;-69
2023/12/31 05:45:39;;;;;;;6.93;6.13;;;3.90;91.20;;;2.77;98.38;97170.31;5023592;28;20470;-69
2023/12/31 05:48:07;;;;;;;7.90;7.10;;;3.90;91.10;;;2.83;98.22;97171.41;5021912;28;20444;-68
2023/12/31 05:50:34;;;;;;;8.10;5.80;;;3.90;91.10;;;2.85;97.10;97174.72;5018476;28;20455;-69
2023/12/31 05:53:03;;;;;;;7.60;6.30;;;3.90;90.90;;;2.81;97.22;97168.13;5004347;28;21105;-69
2023/12/31 05:55:31;;;;;;;6.60;5.23;;;3.90;90.70;;;2.81;97.29;97166.28;5010515;28;20457;-67
2023/12/31 05:57:58;;;;;;;6.87;6.17;;;3.90;90.50;;;2.71;97.46;97154.22;5017439;28;20952;-68
2023/12/31 06:00:27;;;;;;;7.73;5.90;;;3.80;90.60;;;2.62;98.26;97156.19;5029590;28;20458;-68
2023/12/31 06:02:54;;;;;;;7.30;5.67;;;3.80;90.70;;;2.60;98.01;97142.19;5008793;28;20451;-67
2023/12/31 06:05:21;;;;;;;9.43;5.97;;;3.70;90.80;;;2.56;97.57;97152.41;5026349;28;20465;-68
2023/12/31 06:07:49;;;;;;;8.03;5.93;;;3.70;90.80;;;2.55;98.22;97151.59;5010825;28;20455;-68
2023/12/31 06:10:17;;;;;;;6.20;5.60;;;3.70;90.90;;;2.54;97.75;97146.44;5009547;28;20454;-67
2023/12/31 06:12:44;;;;;;;6.20;5.63;;;3.70;90.80;;;2.55;98.00;97146.25;5014447;28;20463;-68
2023/12/31 06:15:12;;;;;;;7.80;6.03;;;3.70;90.90;;;2.54;97.94;97143.78;5012526;28;20489;-67
2023/12/31 06:17:39;;;;;;;7.03;6.33;;;3.60;90.80;;;2.61;97.26;97146.53;5003981;28;20882;-69
2023/12/31 06:20:09;;;;;;;6.77;5.20;;;3.60;91.00;;;2.58;97.58;97150.41;5005091;28;21046;-68
2023/12/31 06:22:37;;;;;;;8.93;7.03;;;3.60;90.80;;;2.55;97.14;97140.94;5008616;28;20462;-69
2023/12/31 06:25:05;;;;;;;8.00;6.30;;;3.60;90.80;;;2.63;97.44;97147.16;5016830;28;20486;-68
2023/12/31 06:27:38;;;;;;;6.70;5.80;;;3.60;90.90;;;2.84;97.01;97141.06;5021674;28;20492;-68
2023/12/31 06:30:07;;;;;;;6.20;5.37;;;3.80;91.40;;;2.75;96.12;97116.31;5022245;28;20462;-68
2023/12/31 06:32:34;;;;;;;6.63;6.00;;;3.90;90.60;;;3.01;95.46;97130.16;5006174;28;20532;-67
2023/12/31 06:35:03;;;;;;;7.00;5.63;;;4.00;90.10;;;3.05;94.62;97123.44;5024549;28;20474;-67
2023/12/31 06:37:30;;;;;;;7.37;5.77;;;4.10;89.20;;;2.63;94.22;97035.97;5018105;28;20463;-68
2023/12/31 06:39:57;;;;;;;6.73;5.40;;;4.20;88.60;;;3.17;94.13;97119.22;5021403;28;20498;-68
2023/12/31 06:42:24;;;;;;;5.83;5.20;;;4.20;88.20;;;3.32;92.88;97118.34;5021931;28;20971;-68
2023/12/31 06:44:53;;;;;;;7.10;5.47;;;4.30;88.10;;;3.33;91.59;97115.50;5025759;28;20477;-68
2023/12/31 06:47:20;;;;;;;7.10;6.17;;;4.40;87.20;;;3.35;91.74;97112.66;5003861;28;20462;-68
2023/12/31 06:49:48;;;;;;;6.17;4.90;;;4.40;86.70;;;3.46;91.77;97108.63;5024948;28;20945;-68
2023/12/31 06:52:15;;;;;;;7.63;6.07;;;4.50;86.60;;;3.39;90.68;97104.03;5014965;28;20573;-68
2023/12/31 06:54:43;;;;;;;6.77;6.07;;;4.50;86.20;;;3.52;90.60;97124.72;5021062;28;20506;-68
2023/12/31 06:57:10;;;;;;;6.90;6.20;;;4.60;86.00;;;3.49;89.90;97113.56;5025460;28;20455;-68
2023/12/31 06:59:38;;;;;;;5.33;4.83;;;4.60;85.80;;;3.60;89.49;97118.41;5020058;28;20450;-68
2023/12/31 07:02:08;;;;;;;6.53;5.10;;;4.60;85.40;;;3.73;88.83;97112.34;5031007;28;21313;-71
2023/12/31 07:04:37;;;;;;;6.13;5.23;;;4.70;85.30;;;3.76;87.98;97109.25;4991536;28;20899;-70
2023/12/31 07:07:08;;;;;;;5.20;4.70;;;4.80;84.70;;;3.83;86.89;97117.34;5016570;28;20480;-70
2023/12/31 07:09:37;;;;;;;5.63;5.10;;;4.80;84.30;;;3.83;86.95;97104.81;5008578;28;20886;-69
2023/12/31 07:12:06;;;;;;;6.10;5.50;;;4.80;84.00;;;3.74;86.28;97105.16;5022947;28;20462;-69
2023/12/31 07:14:34;;;;;;;5.83;5.07;;;4.80;83.70;;;3.70;86.93;97099.38;5028330;28;20469;-70
2023/12/31 07:17:02;;;;;;;5.77;5.20;;;4.70;83.90;;;3.70;87.14;97094.03;5012368;28;20462;-70
2023/12/31 07:19:32;;;;;;;5.30;4.80;;;4.70;83.60;;;3.52;87.34;97075.78;5031557;28;20453;-70
2023/12/31 07:21:59;;;;;;;6.70;5.03;;;4.70;83.60;;;3.65;86.81;97091.94;5032286;28;20450;-70
2023/12/31 07:24:27;;;;;;;5.77;5.17;;;4.70;83.50;;;3.75;86.65;97096.94;5029829;28;20482;-70
2023/12/31 07:26:56;;;;;;;6.33;4.70;;;4.70;83.40;;;3.64;86.24;97089.44;4995613;28;20458;-69
2023/12/31 07:29:23;;;;;;;5.43;4.93;;;4.70;83.50;;;3.67;85.62;97091.75;5012536;28;20454;-69
2023/12/31 07:31:51;;;;;;;5.20;4.70;;;4.70;83.20;;;3.74;85.19;97081.09;5013437;28;21105;-69
2023/12/31 07:34:18;;;;;;;6.23;4.90;;;4.70;83.10;;;3.73;85.27;97087.47;5015198;28;20469;-69
2023/12/31 07:36:47;;;;;;;5.67;4.97;;;4.70;83.00;;;3.18;85.70;97018.63;5026832;28;20463;-70
2023/12/31 07:39:16;;;;;;;5.13;4.63;;;4.70;82.90;;;3.83;85.94;97090.63;5022873;28;20450;-71
2023/12/31 07:41:49;;;;;;;5.17;4.67;;;4.80;83.20;;;3.72;85.39;97077.81;5001076;28;20454;-70
2023/12/31 07:44:18;;;;;;;6.57;5.03;;;4.70;82.70;;;3.83;84.97;97090.63;5023446;28;20475;-70
2023/12/31 07:46:46;;;;;;;5.40;4.90;;;4.80;82.40;;;3.83;84.34;97090.63;5006689;28;20458;-70
2023/12/31 07:49:13;;;;;;;6.10;5.60;;;4.80;82.60;;;3.93;84.25;97084.91;5017824;28;20447;-70
2023/12/31 07:51:41;;;;;;;7.03;5.20;;;4.80;82.50;;;3.76;84.04;97071.06;5028203;28;20523;-70
2023/12/31 07:54:10;;;;;;;5.77;5.17;;;4.80;82.20;;;3.35;84.33;96995.97;5024675;28;20463;-70
2023/12/31 07:56:41;;;;;;;4.90;4.40;;;4.80;82.40;;;4.02;83.89;97088.25;5014619;28;20452;-70
2023/12/31 07:59:09;;;;;;;5.97;5.37;;;4.90;82.30;;;4.07;83.07;97083.16;5021920;28;20533;-70
2023/12/31 08:01:36;;;;;;;5.37;4.87;;;4.90;81.90;;;4.10;83.38;97088.13;5005163;28;20557;-70
2023/12/31 08:04:03;;;;;;;6.00;5.40;;;5.00;82.00;;;4.06;83.19;97093.03;4989760;28;20557;-70
2023/12/31 08:06:31;;;;;;;6.77;5.77;;;5.00;81.60;;;3.86;82.11;97049.31;5021492;28;20463;-70
2023/12/31 08:08:58;;;;;;;6.70;6.10;;;5.10;81.40;;;4.30;82.79;97084.72;5029776;28;20450;-69
2023/12/31 08:11:27;;;;;;;9.17;6.00;;;5.20;81.50;;;4.37;81.42;97073.03;5010889;28;20944;-70
2023/12/31 08:13:55;;;;;;;8.20;6.30;;;5.30;81.10;;;4.42;80.78;97087.66;5002578;28;20466;-70
2023/12/31 08:16:22;;;;;;;5.87;5.27;;;5.40;80.60;;;4.48;79.81;97087.69;5016101;28;20452;-70
2023/12/31 08:18:49;;;;;;;6.73;5.20;;;5.50;80.50;;;4.41;80.35;97078.81;5006113;28;20509;-69
2023/12/31 08:21:16;;;;;;;6.83;6.10;;;5.50;80.30;;;4.41;80.31;97075.31;5023814;28;20528;-69
2023/12/31 08:23:46;;;;;;;7.17;6.17;;;5.50;80.10;;;4.53;79.84;97079.91;5021384;28;20481;-70
2023/12/31 08:26:13;;;;;;;6.23;5.63;;;5.50;80.20;;;4.82;80.17;97077.09;4976234;28;20454;-69
2023/12/31 08:28:43;;;;;;;5.80;5.30;;;5.60;80.70;;;4.71;78.41;97078.50;5023251;28;20879;-69
2023/12/31 08:31:14;;;;;;;5.90;5.40;;;5.70;79.50;;;4.65;78.96;97069.44;5007076;28;20850;-69
2023/12/31 08:33:41;;;;;;;6.63;5.93;;;5.70;79.40;;;4.89;78.38;97075.28;5008342;28;20540;-70
2023/12/31 08:36:09;;;;;;;6.70;5.67;;;5.80;79.40;;;4.97;77.78;97076.94;5020579;28;20862;-70
2023/12/31 08:38:36;;;;;;;7.37;6.60;;;5.80;79.20;;;5.08;76.68;97071.00;5021603;28;21243;-69
2023/12/31 08:41:04;;;;;;;6.90;6.13;;;6.00;78.90;;;5.03;76.50;97065.41;5030693;28;20452;-70
2023/12/31 08:43:35;;;;;;;8.37;6.10;;;6.00;78.60;;;5.01;77.13;97064.78;5017086;28;20482;-69
2023/12/31 08:46:10;;;;;;;7.20;6.00;;;5.90;78.50;;;4.86;76.90;97064.16;5027684;28;20472;-69
2023/12/31 08:48:37;;;;;;;6.70;6.10;;;5.90;78.30;;;4.81;77.53;97059.38;5012770;28;20795;-70
2023/12/31 08:51:05;;;;;;;7.43;5.83;;;5.80;78.40;;;4.86;77.21;97053.44;5004723;28;20583;-70
2023/12/31 08:53:36;;;;;;;6.90;6.20;;;5.90;78.40;;;4.94;76.37;97050.59;5011054;28;20457;-70
2023/12/31 08:56:04;;;;;;;6.17;5.57;;;6.00;78.10;;;4.92;76.77;97061.47;5012692;28;20458;-70
2023/12/31 08:58:32;;;;;;;7.40;6.43;;;5.90;78.20;;;4.89;76.47;97055.69;5003778;28;21037;-70
2023/12/31 09:01:02;;;;;;;8.67;6.10;;;5.90;78.00;;;4.91;76.89;97061.66;5007213;28;20490;-70
2023/12/31 09:03:32;;;;;;;8.23;6.30;;;5.90;77.90;;;4.95;76.64;97074.47;5008359;28;20577;-71
2023/12/31 09:06:00;;;;;;;7.70;6.10;;;5.90;78.10;;;4.83;76.76;97068.03;5027516;28;20485;-69
2023/12/31 09:08:28;;;;;;;7.53;5.73;;;5.90;78.00;;;4.82;76.88;97061.03;5023403;28;20450;-70
2023/12/31 09:11:00;;;;;;;6.37;5.77;;;5.90;77.90;;;4.93;76.23;97073.03;5015951;28;20462;-70
2023/12/31 09:13:27;;;;;;;6.03;5.40;;;5.90;77.70;;;4.50;76.18;97013.41;5023235;28;20459;-69
2023/12/31 09:16:03;;;;;;;6.20;5.60;;;5.90;77.70;;;4.87;76.46;97077.34;5002585;28;20460;-70
2023/12/31 09:18:33;;;;;;;6.40;5.80;;;5.80;77.60;;;4.92;75.82;97082.06;5020483;28;20497;-69
2023/12/31 09:21:00;;;;;;;6.80;5.70;;;5.90;77.60;;;5.00;75.18;97081.03;5027307;28;20478;-69
2023/12/31 09:23:28;;;;;;;7.90;6.27;;;6.00;77.30;;;4.98;75.46;97089.31;5006306;28;20455;-69
2023/12/31 09:25:55;;;;;;;7.97;6.60;;;6.00;77.20;;;4.82;76.09;97072.59;5010648;28;20475;-68
2023/12/31 09:28:22;;;;;;;6.93;6.20;;;6.00;77.30;;;4.99;75.64;97082.91;5020043;28;20458;-69
2023/12/31 09:30:51;;;;;;;6.40;5.73;;;6.00;77.10;;;4.94;74.82;97088.06;4985299;28;20955;-68
2023/12/31 09:33:19;;;;;;;5.60;4.83;;;6.00;76.90;;;5.12;75.45;97083.97;5002949;28;20455;-69
2023/12/31 09:35:50;;;;;;;7.90;5.63;;;6.00;77.00;;;4.81;74.63;97033.47;5010475;28;20505;-71
2023/12/31 09:38:18;;;;;;;9.70;6.47;;;6.10;76.70;;;5.13;74.49;97064.19;5005373;28;20508;-70
2023/12/31 09:40:46;;;;;;;8.33;7.00;;;6.20;76.70;;;5.38;73.80;97073.31;5027545;28;20439;-70
2023/12/31 09:43:20;;;;;;;7.00;6.17;;;6.30;76.50;;;5.32;73.47;97082.13;5012423;28;20538;-70
2023/12/31 09:45:49;;;;;;;7.20;6.30;;;6.30;76.10;;;5.44;73.30;97078.84;5011808;28;21006;-70
2023/12/31 09:48:17;;;;;;;6.93;5.80;;;6.40;76.10;;;5.45;73.38;97061.75;4994317;28;20469;-70
2023/12/31 09:50:45;;;;;;;6.70;5.50;;;6.40;76.10;;;5.20;73.78;97060.50;5009338;28;20450;-70
2023/12/31 09:53:18;;;;;;;5.93;5.33;;;6.30;75.60;;;5.49;72.61;97057.63;5021251;28;20537;-69
2023/12/31 09:55:50;;;;;;;5.57;5.07;;;6.40;75.70;;;5.37;72.37;97027.97;5019265;28;20451;-70
2023/12/31 09:58:21;;;;;;;6.67;5.80;;;6.40;75.20;;;5.67;71.92;97016.81;4985171;28;20447;-70
2023/12/31 10:00:50;;;;;;;4.90;4.50;;;6.50;75.30;;;5.79;70.67;97046.47;5001206;28;20465;-69
2023/12/31 10:03:19;;;;;;;5.93;4.30;;;6.70;74.80;;;5.77;70.67;97037.81;5023646;28;20469;-68
2023/12/31 10:05:53;;;;;;;5.40;4.90;;;6.70;74.50;;;5.77;70.60;97048.53;5006751;28;20537;-68
2023/12/31 10:08:24;;;;;;;5.80;4.70;;;6.70;74.40;;;5.79;70.44;97046.47;5021903;28;20457;-70
2023/12/31 10:10:56;;;;;;;5.57;5.00;;;6.70;74.20;;;5.90;69.81;97042.31;5009425;28;20526;-71
2023/12/31 10:13:28;;;;;;;5.17;4.70;;;6.80;74.00;;;5.98;69.66;97054.66;5023199;28;20537;-72
2023/12/31 10:15:58;;;;;;;4.20;3.90;;;7.00;73.90;;;6.03;69.59;97052.25;5024417;28;20450;-73
2023/12/31 10:18:26;;;;;;;6.80;5.63;;;6.90;73.90;;;6.08;69.14;97030.97;5021026;28;20482;-69
2023/12/31 10:20:57;;;;;;;7.53;4.30;;;7.00;73.80;;;6.09;69.48;97019.19;5001543;28;20456;-69
2023/12/31 10:23:29;;;;;;;5.47;4.70;;;7.00;73.60;;;6.20;68.49;97015.88;4992725;28;20502;-70
2023/12/31 10:26:01;;;;;;;6.60;4.93;;;7.10;73.30;;;5.96;68.43;96991.34;5022377;28;20571;-69
2023/12/31 10:28:30;;;;;;;4.83;4.37;;;7.10;72.80;;;5.98;69.18;97009.09;5008998;28;20550;-69
2023/12/31 10:31:02;;;;;;;5.17;4.67;;;7.00;73.00;;;6.33;68.04;96998.09;5022040;28;20451;-69
2023/12/31 10:33:36;;;;;;;5.43;4.53;;;7.20;72.80;;;6.37;67.60;96996.63;5003524;28;20464;-69